<?xml version="1.0" encoding="UTF-8" standalone="no" ?>
<gpx xmlns="http://www.topografix.com/GPX/1/1" xmlns:xsi="http://www.w3.org/2001/XMLSchema-instance" xsi:schemaLocation="http://www.topografix.com/GPX/1/1 http://www.topografix.com/GPX/1/1/gpx.xsd" version="1.1" creator="VisuGPX - https://www.visugpx.com">
  <metadata>
    <name>echappee verte Aubrac VTT</name>
    <desc><![CDATA[VTT : parcours de VTT de l'évènement 'Échappée Verte Aubrac.
De La Trinitat, en passant par Saint-Urcize et jusqu'à Nasbinals.
Distance du parcours aller = 18 km
]]></desc>
  </metadata>
  <trk>
    <name><![CDATA[Sortie VTT le matin]]></name>
    <extensions>
      <line xmlns="http://www.topografix.com/GPX/gpx_style/0/2">
        <color>0000FF</color>
        <opacity>1</opacity>
        <width>4</width>
      </line>
    </extensions>
    <trkseg>
      <trkpt lat="44.74729" lon="2.94056">
        <ele>1223.4</ele>
        <time>2025-07-10T09:15:44Z</time>
      </trkpt>
      <trkpt lat="44.74505" lon="2.94169">
        <ele>1219.6</ele>
        <time>2025-07-10T09:16:21Z</time>
      </trkpt>
      <trkpt lat="44.74417" lon="2.94187">
        <ele>1219.5</ele>
        <time>2025-07-10T09:16:36Z</time>
      </trkpt>
      <trkpt lat="44.74292" lon="2.94193">
        <ele>1216.8</ele>
        <time>2025-07-10T09:17:00Z</time>
      </trkpt>
      <trkpt lat="44.74201" lon="2.94162">
        <ele>1214.6</ele>
        <time>2025-07-10T09:17:13Z</time>
      </trkpt>
      <trkpt lat="44.74109" lon="2.94086">
        <ele>1214.7</ele>
        <time>2025-07-10T09:17:27Z</time>
      </trkpt>
      <trkpt lat="44.74068" lon="2.9403">
        <ele>1216.1</ele>
        <time>2025-07-10T09:17:36Z</time>
      </trkpt>
      <trkpt lat="44.74015" lon="2.93994">
        <ele>1218.2</ele>
        <time>2025-07-10T09:17:53Z</time>
      </trkpt>
      <trkpt lat="44.73949" lon="2.93895">
        <ele>1222</ele>
        <time>2025-07-10T09:18:14Z</time>
      </trkpt>
      <trkpt lat="44.73889" lon="2.93832">
        <ele>1225.4</ele>
        <time>2025-07-10T09:18:33Z</time>
      </trkpt>
      <trkpt lat="44.73756" lon="2.93751">
        <ele>1231</ele>
        <time>2025-07-10T09:19:14Z</time>
      </trkpt>
      <trkpt lat="44.73712" lon="2.93734">
        <ele>1232.2</ele>
        <time>2025-07-10T09:19:25Z</time>
      </trkpt>
      <trkpt lat="44.73682" lon="2.93733">
        <ele>1232.9</ele>
        <time>2025-07-10T09:19:32Z</time>
      </trkpt>
      <trkpt lat="44.73662" lon="2.93746">
        <ele>1233.9</ele>
        <time>2025-07-10T09:19:38Z</time>
      </trkpt>
      <trkpt lat="44.73413" lon="2.94074">
        <ele>1248.2</ele>
        <time>2025-07-10T09:21:19Z</time>
      </trkpt>
      <trkpt lat="44.73357" lon="2.94085">
        <ele>1249.2</ele>
        <time>2025-07-10T09:21:32Z</time>
      </trkpt>
      <trkpt lat="44.73295" lon="2.9408">
        <ele>1250</ele>
        <time>2025-07-10T09:23:36Z</time>
      </trkpt>
      <trkpt lat="44.73053" lon="2.93968">
        <ele>1252.8</ele>
        <time>2025-07-10T09:24:22Z</time>
      </trkpt>
      <trkpt lat="44.73036" lon="2.93967">
        <ele>1253.1</ele>
        <time>2025-07-10T09:24:25Z</time>
      </trkpt>
      <trkpt lat="44.73021" lon="2.93978">
        <ele>1253.6</ele>
        <time>2025-07-10T09:24:31Z</time>
      </trkpt>
      <trkpt lat="44.72968" lon="2.93963">
        <ele>1257.7</ele>
        <time>2025-07-10T09:24:55Z</time>
      </trkpt>
      <trkpt lat="44.72924" lon="2.94041">
        <ele>1264.6</ele>
        <time>2025-07-10T09:25:25Z</time>
      </trkpt>
      <trkpt lat="44.72789" lon="2.94382">
        <ele>1278.9</ele>
        <time>2025-07-10T09:27:01Z</time>
      </trkpt>
      <trkpt lat="44.72786" lon="2.94406">
        <ele>1278.5</ele>
        <time>2025-07-10T09:27:05Z</time>
      </trkpt>
      <trkpt lat="44.72796" lon="2.94433">
        <ele>1277.8</ele>
        <time>2025-07-10T09:27:10Z</time>
      </trkpt>
      <trkpt lat="44.72959" lon="2.94607">
        <ele>1279.6</ele>
        <time>2025-07-10T09:27:50Z</time>
      </trkpt>
      <trkpt lat="44.7311" lon="2.94728">
        <ele>1280</ele>
        <time>2025-07-10T09:28:33Z</time>
      </trkpt>
      <trkpt lat="44.73195" lon="2.94825">
        <ele>1278.1</ele>
        <time>2025-07-10T09:28:55Z</time>
      </trkpt>
      <trkpt lat="44.73194" lon="2.94877">
        <ele>1277.6</ele>
        <time>2025-07-10T09:29:11Z</time>
      </trkpt>
      <trkpt lat="44.73137" lon="2.94992">
        <ele>1268</ele>
        <time>2025-07-10T09:29:42Z</time>
      </trkpt>
      <trkpt lat="44.73078" lon="2.95037">
        <ele>1265.6</ele>
        <time>2025-07-10T09:29:58Z</time>
      </trkpt>
      <trkpt lat="44.73013" lon="2.9512">
        <ele>1257.9</ele>
        <time>2025-07-10T09:30:25Z</time>
      </trkpt>
      <trkpt lat="44.72922" lon="2.95179">
        <ele>1244.5</ele>
        <time>2025-07-10T09:31:03Z</time>
      </trkpt>
      <trkpt lat="44.72909" lon="2.95221">
        <ele>1237.3</ele>
        <time>2025-07-10T09:31:19Z</time>
      </trkpt>
      <trkpt lat="44.72785" lon="2.95402">
        <ele>1216.2</ele>
        <time>2025-07-10T09:31:59Z</time>
      </trkpt>
      <trkpt lat="44.72779" lon="2.9545">
        <ele>1211</ele>
        <time>2025-07-10T09:32:07Z</time>
      </trkpt>
      <trkpt lat="44.72804" lon="2.9554">
        <ele>1205.1</ele>
        <time>2025-07-10T09:32:21Z</time>
      </trkpt>
      <trkpt lat="44.72827" lon="2.95588">
        <ele>1204.3</ele>
        <time>2025-07-10T09:32:28Z</time>
      </trkpt>
      <trkpt lat="44.72832" lon="2.95623">
        <ele>1203.8</ele>
        <time>2025-07-10T09:32:33Z</time>
      </trkpt>
      <trkpt lat="44.72809" lon="2.95705">
        <ele>1202.6</ele>
        <time>2025-07-10T09:32:43Z</time>
      </trkpt>
      <trkpt lat="44.72759" lon="2.95803">
        <ele>1201.3</ele>
        <time>2025-07-10T09:32:57Z</time>
      </trkpt>
      <trkpt lat="44.72683" lon="2.959">
        <ele>1199.1</ele>
        <time>2025-07-10T09:33:16Z</time>
      </trkpt>
      <trkpt lat="44.72643" lon="2.95994">
        <ele>1196.4</ele>
        <time>2025-07-10T09:33:28Z</time>
      </trkpt>
      <trkpt lat="44.72577" lon="2.96074">
        <ele>1191.1</ele>
        <time>2025-07-10T09:33:42Z</time>
      </trkpt>
      <trkpt lat="44.72492" lon="2.96226">
        <ele>1181.2</ele>
        <time>2025-07-10T09:34:04Z</time>
      </trkpt>
      <trkpt lat="44.7247" lon="2.96376">
        <ele>1177</ele>
        <time>2025-07-10T09:34:19Z</time>
      </trkpt>
      <trkpt lat="44.72426" lon="2.96462">
        <ele>1173.8</ele>
        <time>2025-07-10T09:34:32Z</time>
      </trkpt>
      <trkpt lat="44.72419" lon="2.9651">
        <ele>1171</ele>
        <time>2025-07-10T09:34:39Z</time>
      </trkpt>
      <trkpt lat="44.72405" lon="2.96531">
        <ele>1169.7</ele>
        <time>2025-07-10T09:34:42Z</time>
      </trkpt>
      <trkpt lat="44.72374" lon="2.96538">
        <ele>1167.9</ele>
        <time>2025-07-10T09:34:48Z</time>
      </trkpt>
      <trkpt lat="44.7236" lon="2.9656">
        <ele>1166.3</ele>
        <time>2025-07-10T09:34:52Z</time>
      </trkpt>
      <trkpt lat="44.7235" lon="2.96646">
        <ele>1161.2</ele>
        <time>2025-07-10T09:35:02Z</time>
      </trkpt>
      <trkpt lat="44.7231" lon="2.96718">
        <ele>1156.4</ele>
        <time>2025-07-10T09:35:13Z</time>
      </trkpt>
      <trkpt lat="44.7231" lon="2.96787">
        <ele>1155.6</ele>
        <time>2025-07-10T09:35:20Z</time>
      </trkpt>
      <trkpt lat="44.72283" lon="2.96843">
        <ele>1156</ele>
        <time>2025-07-10T09:35:28Z</time>
      </trkpt>
      <trkpt lat="44.72282" lon="2.9691">
        <ele>1157.4</ele>
        <time>2025-07-10T09:35:36Z</time>
      </trkpt>
      <trkpt lat="44.72343" lon="2.97218">
        <ele>1170.2</ele>
        <time>2025-07-10T09:36:41Z</time>
      </trkpt>
      <trkpt lat="44.72425" lon="2.97437">
        <ele>1175.8</ele>
        <time>2025-07-10T09:39:22Z</time>
      </trkpt>
      <trkpt lat="44.72487" lon="2.97658">
        <ele>1166.6</ele>
        <time>2025-07-10T09:40:03Z</time>
      </trkpt>
      <trkpt lat="44.72479" lon="2.97699">
        <ele>1164.4</ele>
        <time>2025-07-10T09:40:07Z</time>
      </trkpt>
      <trkpt lat="44.72446" lon="2.97771">
        <ele>1161.9</ele>
        <time>2025-07-10T09:40:14Z</time>
      </trkpt>
      <trkpt lat="44.72454" lon="2.97823">
        <ele>1161.3</ele>
        <time>2025-07-10T09:40:20Z</time>
      </trkpt>
      <trkpt lat="44.72479" lon="2.97892">
        <ele>1159.6</ele>
        <time>2025-07-10T09:40:33Z</time>
      </trkpt>
      <trkpt lat="44.72485" lon="2.98052">
        <ele>1151.4</ele>
        <time>2025-07-10T09:40:59Z</time>
      </trkpt>
      <trkpt lat="44.72463" lon="2.98175">
        <ele>1144.6</ele>
        <time>2025-07-10T09:41:20Z</time>
      </trkpt>
      <trkpt lat="44.72493" lon="2.98246">
        <ele>1141</ele>
        <time>2025-07-10T09:41:28Z</time>
      </trkpt>
      <trkpt lat="44.72528" lon="2.98278">
        <ele>1138.9</ele>
        <time>2025-07-10T09:41:35Z</time>
      </trkpt>
      <trkpt lat="44.72528" lon="2.98297">
        <ele>1138.4</ele>
        <time>2025-07-10T09:41:39Z</time>
      </trkpt>
      <trkpt lat="44.72497" lon="2.98314">
        <ele>1137.8</ele>
        <time>2025-07-10T09:41:55Z</time>
      </trkpt>
      <trkpt lat="44.7245" lon="2.98322">
        <ele>1136</ele>
        <time>2025-07-10T09:42:06Z</time>
      </trkpt>
      <trkpt lat="44.72344" lon="2.98482">
        <ele>1126.3</ele>
        <time>2025-07-10T09:42:44Z</time>
      </trkpt>
      <trkpt lat="44.72264" lon="2.98509">
        <ele>1125.1</ele>
        <time>2025-07-10T09:42:55Z</time>
      </trkpt>
      <trkpt lat="44.72252" lon="2.98523">
        <ele>1124.9</ele>
        <time>2025-07-10T09:42:58Z</time>
      </trkpt>
      <trkpt lat="44.72248" lon="2.98553">
        <ele>1124.8</ele>
        <time>2025-07-10T09:43:01Z</time>
      </trkpt>
      <trkpt lat="44.72268" lon="2.98632">
        <ele>1124.9</ele>
        <time>2025-07-10T09:43:09Z</time>
      </trkpt>
      <trkpt lat="44.72419" lon="2.98936">
        <ele>1135</ele>
        <time>2025-07-10T09:45:22Z</time>
      </trkpt>
      <trkpt lat="44.7242" lon="2.99103">
        <ele>1140.7</ele>
        <time>2025-07-10T09:46:14Z</time>
      </trkpt>
      <trkpt lat="44.72365" lon="2.99149">
        <ele>1141.6</ele>
        <time>2025-07-10T09:47:26Z</time>
      </trkpt>
      <trkpt lat="44.72305" lon="2.99169">
        <ele>1143</ele>
        <time>2025-07-10T09:47:48Z</time>
      </trkpt>
      <trkpt lat="44.72151" lon="2.99195">
        <ele>1144.9</ele>
        <time>2025-07-10T09:48:38Z</time>
      </trkpt>
      <trkpt lat="44.72054" lon="2.99252">
        <ele>1148.1</ele>
        <time>2025-07-10T09:49:08Z</time>
      </trkpt>
      <trkpt lat="44.71961" lon="2.99425">
        <ele>1148.8</ele>
        <time>2025-07-10T09:50:29Z</time>
      </trkpt>
      <trkpt lat="44.71815" lon="2.99599">
        <ele>1147.9</ele>
        <time>2025-07-10T09:51:28Z</time>
      </trkpt>
      <trkpt lat="44.71718" lon="2.99685">
        <ele>1147.1</ele>
        <time>2025-07-10T09:52:07Z</time>
      </trkpt>
      <trkpt lat="44.716" lon="2.99769">
        <ele>1149.1</ele>
        <time>2025-07-10T09:52:53Z</time>
      </trkpt>
      <trkpt lat="44.71504" lon="2.99786">
        <ele>1153.2</ele>
        <time>2025-07-10T09:53:35Z</time>
      </trkpt>
      <trkpt lat="44.71427" lon="2.99828">
        <ele>1151.2</ele>
        <time>2025-07-10T09:54:00Z</time>
      </trkpt>
      <trkpt lat="44.71327" lon="2.99932">
        <ele>1145.8</ele>
        <time>2025-07-10T09:54:22Z</time>
      </trkpt>
      <trkpt lat="44.71296" lon="2.99939">
        <ele>1145.1</ele>
        <time>2025-07-10T09:54:26Z</time>
      </trkpt>
      <trkpt lat="44.71181" lon="2.99926">
        <ele>1142.5</ele>
        <time>2025-07-10T09:54:41Z</time>
      </trkpt>
      <trkpt lat="44.7108" lon="2.99963">
        <ele>1138.9</ele>
        <time>2025-07-10T09:54:53Z</time>
      </trkpt>
      <trkpt lat="44.7099" lon="3.00033">
        <ele>1135.4</ele>
        <time>2025-07-10T09:55:05Z</time>
      </trkpt>
      <trkpt lat="44.7094" lon="3.00054">
        <ele>1133</ele>
        <time>2025-07-10T09:55:11Z</time>
      </trkpt>
      <trkpt lat="44.70797" lon="3.00081">
        <ele>1129.8</ele>
        <time>2025-07-10T09:55:27Z</time>
      </trkpt>
      <trkpt lat="44.70644" lon="3.00059">
        <ele>1137.2</ele>
        <time>2025-07-10T09:56:57Z</time>
      </trkpt>
      <trkpt lat="44.70517" lon="3.00014">
        <ele>1140</ele>
        <time>2025-07-10T09:57:38Z</time>
      </trkpt>
      <trkpt lat="44.70433" lon="3.00004">
        <ele>1139.7</ele>
        <time>2025-07-10T09:58:05Z</time>
      </trkpt>
      <trkpt lat="44.70346" lon="3.00027">
        <ele>1139.9</ele>
        <time>2025-07-10T09:58:28Z</time>
      </trkpt>
      <trkpt lat="44.70203" lon="3.00098">
        <ele>1146.5</ele>
        <time>2025-07-10T09:59:25Z</time>
      </trkpt>
      <trkpt lat="44.70087" lon="3.00139">
        <ele>1142.6</ele>
        <time>2025-07-10T10:00:02Z</time>
      </trkpt>
      <trkpt lat="44.69997" lon="3.0014">
        <ele>1135.6</ele>
        <time>2025-07-10T10:00:19Z</time>
      </trkpt>
      <trkpt lat="44.69804" lon="3.00208">
        <ele>1120.6</ele>
        <time>2025-07-10T10:00:51Z</time>
      </trkpt>
      <trkpt lat="44.69779" lon="3.0024">
        <ele>1119.2</ele>
      </trkpt>
      <trkpt lat="44.69757" lon="3.003">
        <ele>1119.2</ele>
        <time>2025-07-10T10:01:52Z</time>
      </trkpt>
      <trkpt lat="44.69754" lon="3.00316">
        <ele>1119.1</ele>
        <time>2025-07-10T10:04:01Z</time>
      </trkpt>
      <trkpt lat="44.69765" lon="3.00376">
        <ele>1117.1</ele>
      </trkpt>
      <trkpt lat="44.69766" lon="3.00416">
        <ele>1116.3</ele>
      </trkpt>
      <trkpt lat="44.6978" lon="3.00494">
        <ele>1112.2</ele>
      </trkpt>
      <trkpt lat="44.69814" lon="3.00507">
        <ele>1110.2</ele>
        <time>2025-07-10T10:05:04Z</time>
      </trkpt>
      <trkpt lat="44.69859" lon="3.00533">
        <ele>1103.8</ele>
        <time>2025-07-10T10:05:16Z</time>
      </trkpt>
      <trkpt lat="44.69867" lon="3.00572">
        <ele>1100.8</ele>
      </trkpt>
      <trkpt lat="44.6985" lon="3.00602">
        <ele>1097.1</ele>
      </trkpt>
      <trkpt lat="44.69824" lon="3.00609">
        <ele>1095.6</ele>
        <time>2025-07-10T10:05:29Z</time>
      </trkpt>
      <trkpt lat="44.69785" lon="3.00605">
        <ele>1095.4</ele>
      </trkpt>
      <trkpt lat="44.69747" lon="3.0059">
        <ele>1093.1</ele>
        <time>2025-07-10T10:06:05Z</time>
      </trkpt>
      <trkpt lat="44.69732" lon="3.0056">
        <ele>1095.7</ele>
      </trkpt>
      <trkpt lat="44.69718" lon="3.00548">
        <ele>1094.2</ele>
      </trkpt>
      <trkpt lat="44.69666" lon="3.00532">
        <ele>1085.3</ele>
        <time>2025-07-10T10:07:05Z</time>
      </trkpt>
      <trkpt lat="44.69638" lon="3.00517">
        <ele>1082.2</ele>
        <time>2025-07-10T10:07:13Z</time>
      </trkpt>
      <trkpt lat="44.69583" lon="3.00504">
        <ele>1077.9</ele>
        <time>2025-07-10T10:08:17Z</time>
      </trkpt>
      <trkpt lat="44.69565" lon="3.00502">
        <ele>1077.2</ele>
        <time>2025-07-10T10:08:54Z</time>
      </trkpt>
      <trkpt lat="44.69556" lon="3.00507">
        <ele>1076.5</ele>
      </trkpt>
      <trkpt lat="44.69542" lon="3.00504">
        <ele>1076.3</ele>
        <time>2025-07-10T10:09:36Z</time>
      </trkpt>
      <trkpt lat="44.69515" lon="3.0047">
        <ele>1076.3</ele>
        <time>2025-07-10T10:10:09Z</time>
      </trkpt>
      <trkpt lat="44.69501" lon="3.00441">
        <ele>1077.6</ele>
      </trkpt>
      <trkpt lat="44.69483" lon="3.00414">
        <ele>1078.5</ele>
        <time>2025-07-10T10:10:19Z</time>
      </trkpt>
      <trkpt lat="44.69402" lon="3.00356">
        <ele>1081.7</ele>
      </trkpt>
      <trkpt lat="44.69379" lon="3.00328">
        <ele>1085.7</ele>
      </trkpt>
      <trkpt lat="44.69356" lon="3.00315">
        <ele>1088.9</ele>
        <time>2025-07-10T10:10:52Z</time>
      </trkpt>
      <trkpt lat="44.69336" lon="3.00309">
        <ele>1086.9</ele>
        <time>2025-07-10T10:11:00Z</time>
      </trkpt>
      <trkpt lat="44.69315" lon="3.0029">
        <ele>1088.9</ele>
      </trkpt>
      <trkpt lat="44.69296" lon="3.00265">
        <ele>1089.4</ele>
        <time>2025-07-10T10:11:51Z</time>
      </trkpt>
      <trkpt lat="44.69238" lon="3.00242">
        <ele>1089.3</ele>
      </trkpt>
      <trkpt lat="44.69206" lon="3.00211">
        <ele>1090.6</ele>
        <time>2025-07-10T10:12:49Z</time>
      </trkpt>
      <trkpt lat="44.69138" lon="3.00195">
        <ele>1096.7</ele>
        <time>2025-07-10T10:13:28Z</time>
      </trkpt>
      <trkpt lat="44.69099" lon="3.00168">
        <ele>1096.9</ele>
      </trkpt>
      <trkpt lat="44.69046" lon="3.00118">
        <ele>1100.8</ele>
        <time>2025-07-10T10:14:16Z</time>
      </trkpt>
      <trkpt lat="44.68945" lon="3.00081">
        <ele>1107.5</ele>
        <time>2025-07-10T10:15:17Z</time>
      </trkpt>
      <trkpt lat="44.68889" lon="3.00048">
        <ele>1113</ele>
        <time>2025-07-10T10:15:48Z</time>
      </trkpt>
      <trkpt lat="44.68861" lon="3.0004">
        <ele>1113.8</ele>
      </trkpt>
      <trkpt lat="44.68808" lon="3.00046">
        <ele>1122.2</ele>
        <time>2025-07-10T10:16:42Z</time>
      </trkpt>
      <trkpt lat="44.68792" lon="3.00042">
        <ele>1121.3</ele>
      </trkpt>
      <trkpt lat="44.68776" lon="3.00031">
        <ele>1124.3</ele>
      </trkpt>
      <trkpt lat="44.68743" lon="2.99998">
        <ele>1130.3</ele>
        <time>2025-07-10T10:17:31Z</time>
      </trkpt>
      <trkpt lat="44.68685" lon="2.99929">
        <ele>1136.6</ele>
      </trkpt>
      <trkpt lat="44.68628" lon="2.9987">
        <ele>1143.6</ele>
        <time>2025-07-10T10:22:30Z</time>
      </trkpt>
      <trkpt lat="44.68596" lon="2.99883">
        <ele>1146.1</ele>
        <time>2025-07-10T10:25:02Z</time>
      </trkpt>
      <trkpt lat="44.68514" lon="2.99923">
        <ele>1146.6</ele>
      </trkpt>
      <trkpt lat="44.68448" lon="2.99949">
        <ele>1153.1</ele>
        <time>2025-07-10T10:27:13Z</time>
      </trkpt>
      <trkpt lat="44.68418" lon="2.99973">
        <ele>1154.7</ele>
      </trkpt>
      <trkpt lat="44.68353" lon="3.00003">
        <ele>1158</ele>
      </trkpt>
      <trkpt lat="44.68332" lon="3.00021">
        <ele>1158.4</ele>
        <time>2025-07-10T10:28:24Z</time>
      </trkpt>
      <trkpt lat="44.68277" lon="3.00076">
        <ele>1157.2</ele>
        <time>2025-07-10T10:28:41Z</time>
      </trkpt>
      <trkpt lat="44.68195" lon="3.00118">
        <ele>1160.5</ele>
        <time>2025-07-10T10:30:37Z</time>
      </trkpt>
      <trkpt lat="44.68207" lon="3.00149">
        <ele>1163.1</ele>
      </trkpt>
      <trkpt lat="44.68216" lon="3.00187">
        <ele>1166.5</ele>
      </trkpt>
      <trkpt lat="44.68228" lon="3.0023">
        <ele>1171</ele>
        <time>2025-07-10T10:34:26Z</time>
      </trkpt>
      <trkpt lat="44.68234" lon="3.00306">
        <ele>1179.7</ele>
      </trkpt>
      <trkpt lat="44.68232" lon="3.00378">
        <ele>1184.1</ele>
        <time>2025-07-10T10:36:35Z</time>
      </trkpt>
      <trkpt lat="44.68228" lon="3.00396">
        <ele>1185.4</ele>
      </trkpt>
      <trkpt lat="44.68213" lon="3.00412">
        <ele>1186.7</ele>
        <time>2025-07-10T10:36:59Z</time>
      </trkpt>
      <trkpt lat="44.68155" lon="3.00474">
        <ele>1190.1</ele>
      </trkpt>
      <trkpt lat="44.68052" lon="3.00594">
        <ele>1192.9</ele>
        <time>2025-07-10T10:40:04Z</time>
      </trkpt>
      <trkpt lat="44.6805" lon="3.00601">
        <ele>1192.9</ele>
      </trkpt>
      <trkpt lat="44.68055" lon="3.00619">
        <ele>1193</ele>
      </trkpt>
      <trkpt lat="44.68052" lon="3.00648">
        <ele>1192.8</ele>
        <time>2025-07-10T10:49:12Z</time>
      </trkpt>
      <trkpt lat="44.68039" lon="3.00684">
        <ele>1190.9</ele>
      </trkpt>
      <trkpt lat="44.68039" lon="3.00712">
        <ele>1189.5</ele>
        <time>2025-07-10T10:49:27Z</time>
      </trkpt>
      <trkpt lat="44.68045" lon="3.008">
        <ele>1186.4</ele>
        <time>2025-07-10T10:49:42Z</time>
      </trkpt>
      <trkpt lat="44.68042" lon="3.00817">
        <ele>1184.5</ele>
      </trkpt>
      <trkpt lat="44.68039" lon="3.00828">
        <ele>1184.6</ele>
        <time>2025-07-10T10:49:56Z</time>
      </trkpt>
      <trkpt lat="44.68011" lon="3.00848">
        <ele>1180.2</ele>
      </trkpt>
      <trkpt lat="44.67997" lon="3.00855">
        <ele>1178.4</ele>
      </trkpt>
      <trkpt lat="44.67977" lon="3.00856">
        <ele>1176.1</ele>
        <time>2025-07-10T10:50:48Z</time>
      </trkpt>
      <trkpt lat="44.67973" lon="3.00856">
        <ele>1175.6</ele>
      </trkpt>
      <trkpt lat="44.6796" lon="3.00858">
        <ele>1175</ele>
        <time>2025-07-10T10:50:55Z</time>
      </trkpt>
      <trkpt lat="44.67934" lon="3.0087">
        <ele>1170.5</ele>
      </trkpt>
      <trkpt lat="44.67905" lon="3.00892">
        <ele>1165.8</ele>
      </trkpt>
      <trkpt lat="44.67872" lon="3.00908">
        <ele>1163.4</ele>
      </trkpt>
      <trkpt lat="44.67856" lon="3.0092">
        <ele>1162.1</ele>
        <time>2025-07-10T10:51:40Z</time>
      </trkpt>
      <trkpt lat="44.67841" lon="3.00921">
        <ele>1160.4</ele>
      </trkpt>
      <trkpt lat="44.67826" lon="3.00927">
        <ele>1158.7</ele>
      </trkpt>
      <trkpt lat="44.67817" lon="3.00924">
        <ele>1158.8</ele>
        <time>2025-07-10T10:52:04Z</time>
      </trkpt>
      <trkpt lat="44.67786" lon="3.00915">
        <ele>1159.8</ele>
      </trkpt>
      <trkpt lat="44.67749" lon="3.00901">
        <ele>1165</ele>
        <time>2025-07-10T10:56:14Z</time>
      </trkpt>
      <trkpt lat="44.67725" lon="3.0088">
        <ele>1164.2</ele>
      </trkpt>
      <trkpt lat="44.67707" lon="3.00855">
        <ele>1165.5</ele>
      </trkpt>
      <trkpt lat="44.67672" lon="3.00805">
        <ele>1168.1</ele>
        <time>2025-07-10T10:56:56Z</time>
      </trkpt>
      <trkpt lat="44.67657" lon="3.00795">
        <ele>1165.9</ele>
      </trkpt>
      <trkpt lat="44.67639" lon="3.00791">
        <ele>1169.4</ele>
        <time>2025-07-10T10:57:05Z</time>
      </trkpt>
      <trkpt lat="44.67578" lon="3.00793">
        <ele>1169.6</ele>
      </trkpt>
      <trkpt lat="44.67522" lon="3.0079">
        <ele>1175.5</ele>
        <time>2025-07-10T10:57:51Z</time>
      </trkpt>
      <trkpt lat="44.67496" lon="3.0082">
        <ele>1178.9</ele>
        <time>2025-07-10T10:58:14Z</time>
      </trkpt>
      <trkpt lat="44.67483" lon="3.00863">
        <ele>1178.9</ele>
        <time>2025-07-10T10:58:37Z</time>
      </trkpt>
      <trkpt lat="44.67434" lon="3.00905">
        <ele>1175.9</ele>
        <time>2025-07-10T10:58:50Z</time>
      </trkpt>
      <trkpt lat="44.67406" lon="3.00962">
        <ele>1173.7</ele>
      </trkpt>
      <trkpt lat="44.67382" lon="3.01023">
        <ele>1171.3</ele>
        <time>2025-07-10T10:59:03Z</time>
      </trkpt>
      <trkpt lat="44.67342" lon="3.01041">
        <ele>1164.7</ele>
      </trkpt>
      <trkpt lat="44.67288" lon="3.01056">
        <ele>1163.4</ele>
        <time>2025-07-10T10:59:19Z</time>
      </trkpt>
      <trkpt lat="44.67227" lon="3.01058">
        <ele>1158.8</ele>
      </trkpt>
      <trkpt lat="44.67192" lon="3.01057">
        <ele>1154.8</ele>
      </trkpt>
      <trkpt lat="44.67173" lon="3.01062">
        <ele>1155.3</ele>
      </trkpt>
      <trkpt lat="44.6716" lon="3.0107">
        <ele>1155.4</ele>
        <time>2025-07-10T11:00:57Z</time>
      </trkpt>
      <trkpt lat="44.67113" lon="3.01017">
        <ele>1158.3</ele>
      </trkpt>
      <trkpt lat="44.67065" lon="3.00973">
        <ele>1156.3</ele>
        <time>2025-07-10T11:01:57Z</time>
      </trkpt>
      <trkpt lat="44.67046" lon="3.00965">
        <ele>1155.3</ele>
      </trkpt>
      <trkpt lat="44.67026" lon="3.00974">
        <ele>1154.1</ele>
      </trkpt>
      <trkpt lat="44.67005" lon="3.0098">
        <ele>1155.3</ele>
      </trkpt>
      <trkpt lat="44.66942" lon="3.00989">
        <ele>1157.8</ele>
        <time>2025-07-10T11:08:35Z</time>
      </trkpt>
      <trkpt lat="44.66915" lon="3.00995">
        <ele>1158</ele>
      </trkpt>
      <trkpt lat="44.66893" lon="3.01014">
        <ele>1162.1</ele>
        <time>2025-07-10T11:09:01Z</time>
      </trkpt>
      <trkpt lat="44.66885" lon="3.01014">
        <ele>1161.4</ele>
      </trkpt>
      <trkpt lat="44.66882" lon="3.0101">
        <ele>1161.3</ele>
      </trkpt>
      <trkpt lat="44.66868" lon="3.00997">
        <ele>1161</ele>
      </trkpt>
      <trkpt lat="44.66849" lon="3.00983">
        <ele>1160.8</ele>
      </trkpt>
      <trkpt lat="44.6683" lon="3.0098">
        <ele>1162.3</ele>
        <time>2025-07-10T11:11:34Z</time>
      </trkpt>
      <trkpt lat="44.6682" lon="3.0098">
        <ele>1160.6</ele>
      </trkpt>
      <trkpt lat="44.66803" lon="3.00986">
        <ele>1162.8</ele>
        <time>2025-07-10T11:11:46Z</time>
      </trkpt>
      <trkpt lat="44.6677" lon="3.01002">
        <ele>1162.8</ele>
      </trkpt>
      <trkpt lat="44.66743" lon="3.01023">
        <ele>1165.6</ele>
        <time>2025-07-10T11:12:23Z</time>
      </trkpt>
      <trkpt lat="44.66729" lon="3.01045">
        <ele>1163.1</ele>
      </trkpt>
      <trkpt lat="44.66712" lon="3.0106">
        <ele>1165.9</ele>
        <time>2025-07-10T11:12:46Z</time>
      </trkpt>
      <trkpt lat="44.66664" lon="3.01095">
        <ele>1167.3</ele>
      </trkpt>
      <trkpt lat="44.6664" lon="3.0111">
        <ele>1170.9</ele>
      </trkpt>
      <trkpt lat="44.66628" lon="3.01124">
        <ele>1169.8</ele>
      </trkpt>
      <trkpt lat="44.66624" lon="3.01133">
        <ele>1171.4</ele>
        <time>2025-07-10T11:18:10Z</time>
      </trkpt>
      <trkpt lat="44.66606" lon="3.01171">
        <ele>1170.5</ele>
      </trkpt>
      <trkpt lat="44.66597" lon="3.01196">
        <ele>1171.2</ele>
      </trkpt>
      <trkpt lat="44.66596" lon="3.01217">
        <ele>1173.7</ele>
        <time>2025-07-10T11:18:40Z</time>
      </trkpt>
      <trkpt lat="44.666" lon="3.01246">
        <ele>1176.3</ele>
      </trkpt>
      <trkpt lat="44.66607" lon="3.01265">
        <ele>1178.6</ele>
      </trkpt>
      <trkpt lat="44.66594" lon="3.01284">
        <ele>1181.6</ele>
        <time>2025-07-10T11:19:14Z</time>
      </trkpt>
      <trkpt lat="44.66584" lon="3.01293">
        <ele>1183.2</ele>
      </trkpt>
      <trkpt lat="44.66573" lon="3.01298">
        <ele>1184.2</ele>
      </trkpt>
      <trkpt lat="44.66563" lon="3.01301">
        <ele>1184.9</ele>
      </trkpt>
      <trkpt lat="44.66553" lon="3.01315">
        <ele>1186.9</ele>
      </trkpt>
      <trkpt lat="44.66542" lon="3.01334">
        <ele>1189</ele>
      </trkpt>
      <trkpt lat="44.66533" lon="3.01342">
        <ele>1189.2</ele>
      </trkpt>
      <trkpt lat="44.66517" lon="3.01336">
        <ele>1191.7</ele>
        <time>2025-07-10T11:20:16Z</time>
      </trkpt>
      <trkpt lat="44.66504" lon="3.01344">
        <ele>1193.5</ele>
      </trkpt>
      <trkpt lat="44.66468" lon="3.01411">
        <ele>1196</ele>
        <time>2025-07-10T11:23:20Z</time>
      </trkpt>
      <trkpt lat="44.66461" lon="3.01418">
        <ele>1195.6</ele>
      </trkpt>
      <trkpt lat="44.66432" lon="3.01417">
        <ele>1196.5</ele>
        <time>2025-07-10T11:23:47Z</time>
      </trkpt>
      <trkpt lat="44.6641" lon="3.01438">
        <ele>1194.3</ele>
      </trkpt>
      <trkpt lat="44.66391" lon="3.01462">
        <ele>1194.5</ele>
        <time>2025-07-10T11:23:59Z</time>
      </trkpt>
      <trkpt lat="44.66334" lon="3.01498">
        <ele>1193.1</ele>
        <time>2025-07-10T11:24:29Z</time>
      </trkpt>
      <trkpt lat="44.66306" lon="3.01506">
        <ele>1190.5</ele>
      </trkpt>
      <trkpt lat="44.66271" lon="3.01524">
        <ele>1190.3</ele>
      </trkpt>
      <trkpt lat="44.66246" lon="3.01534">
        <ele>1187.8</ele>
      </trkpt>
      <trkpt lat="44.66235" lon="3.01543">
        <ele>1186.4</ele>
        <time>2025-07-10T11:25:24Z</time>
      </trkpt>
      <trkpt lat="44.66254" lon="3.01554">
        <ele>1183.8</ele>
        <time>2025-07-10T11:31:35Z</time>
      </trkpt>
      <trkpt lat="44.66288" lon="3.0154">
        <ele>1183.6</ele>
        <time>2025-07-10T11:31:45Z</time>
      </trkpt>
      <trkpt lat="44.66327" lon="3.01534">
        <ele>1181.5</ele>
      </trkpt>
      <trkpt lat="44.66356" lon="3.01537">
        <ele>1180</ele>
        <time>2025-07-10T11:31:59Z</time>
      </trkpt>
      <trkpt lat="44.66362" lon="3.01543">
        <ele>1178.7</ele>
      </trkpt>
      <trkpt lat="44.66369" lon="3.01556">
        <ele>1175.2</ele>
      </trkpt>
      <trkpt lat="44.66411" lon="3.01683">
        <ele>1176.8</ele>
      </trkpt>
      <trkpt lat="44.66419" lon="3.01702">
        <ele>1177.7</ele>
      </trkpt>
      <trkpt lat="44.66423" lon="3.0171">
        <ele>1178.1</ele>
        <time>2025-07-10T11:32:25Z</time>
      </trkpt>
      <trkpt lat="44.66458" lon="3.01732">
        <ele>1179.1</ele>
        <time>2025-07-10T11:32:34Z</time>
      </trkpt>
      <trkpt lat="44.66491" lon="3.01755">
        <ele>1178.6</ele>
      </trkpt>
      <trkpt lat="44.66512" lon="3.01777">
        <ele>1178.9</ele>
      </trkpt>
      <trkpt lat="44.66523" lon="3.0179">
        <ele>1178</ele>
      </trkpt>
      <trkpt lat="44.66529" lon="3.01798">
        <ele>1177.5</ele>
      </trkpt>
      <trkpt lat="44.66533" lon="3.01805">
        <ele>1179.3</ele>
        <time>2025-07-10T11:33:00Z</time>
      </trkpt>
      <trkpt lat="44.66551" lon="3.01849">
        <ele>1177.6</ele>
      </trkpt>
      <trkpt lat="44.66557" lon="3.01873">
        <ele>1177.9</ele>
      </trkpt>
      <trkpt lat="44.66559" lon="3.01897">
        <ele>1179.7</ele>
        <time>2025-07-10T11:33:20Z</time>
      </trkpt>
      <trkpt lat="44.66559" lon="3.01907">
        <ele>1178.5</ele>
      </trkpt>
      <trkpt lat="44.66557" lon="3.01919">
        <ele>1179.5</ele>
      </trkpt>
      <trkpt lat="44.6655" lon="3.01942">
        <ele>1180</ele>
        <time>2025-07-10T11:33:30Z</time>
      </trkpt>
      <trkpt lat="44.66536" lon="3.01976">
        <ele>1178.6</ele>
      </trkpt>
      <trkpt lat="44.66509" lon="3.02011">
        <ele>1181.4</ele>
        <time>2025-07-10T11:35:33Z</time>
      </trkpt>
      <trkpt lat="44.66498" lon="3.02055">
        <ele>1181.9</ele>
      </trkpt>
      <trkpt lat="44.66491" lon="3.02103">
        <ele>1183.4</ele>
        <time>2025-07-10T11:35:59Z</time>
      </trkpt>
      <trkpt lat="44.66489" lon="3.02156">
        <ele>1181.8</ele>
      </trkpt>
      <trkpt lat="44.6649" lon="3.02208">
        <ele>1181.4</ele>
        <time>2025-07-10T11:36:32Z</time>
      </trkpt>
      <trkpt lat="44.6649" lon="3.02272">
        <ele>1183.3</ele>
        <time>2025-07-10T11:36:49Z</time>
      </trkpt>
      <trkpt lat="44.66491" lon="3.02302">
        <ele>1181.7</ele>
      </trkpt>
      <trkpt lat="44.66482" lon="3.0234">
        <ele>1182.6</ele>
      </trkpt>
      <trkpt lat="44.66483" lon="3.02393">
        <ele>1183</ele>
      </trkpt>
      <trkpt lat="44.66486" lon="3.0242">
        <ele>1181.6</ele>
      </trkpt>
      <trkpt lat="44.6648" lon="3.02447">
        <ele>1185.1</ele>
        <time>2025-07-10T11:37:34Z</time>
      </trkpt>
      <trkpt lat="44.66456" lon="3.02467">
        <ele>1181.8</ele>
      </trkpt>
      <trkpt lat="44.6643" lon="3.02491">
        <ele>1186.3</ele>
        <time>2025-07-10T11:37:59Z</time>
      </trkpt>
      <trkpt lat="44.66415" lon="3.02522">
        <ele>1182.5</ele>
        <time>2025-07-10T11:38:14Z</time>
      </trkpt>
      <trkpt lat="44.66422" lon="3.02548">
        <ele>1187.2</ele>
        <time>2025-07-10T11:48:40Z</time>
      </trkpt>
      <trkpt lat="44.6641" lon="3.02569">
        <ele>1187.3</ele>
        <time>2025-07-10T11:48:51Z</time>
      </trkpt>
      <trkpt lat="44.66315" lon="3.02663">
        <ele>1188.5</ele>
        <time>2025-07-10T11:49:27Z</time>
      </trkpt>
      <trkpt lat="44.66295" lon="3.02758">
        <ele>1188.7</ele>
      </trkpt>
      <trkpt lat="44.66283" lon="3.02803">
        <ele>1190.7</ele>
        <time>2025-07-10T11:50:03Z</time>
      </trkpt>
      <trkpt lat="44.66229" lon="3.02838">
        <ele>1191</ele>
        <time>2025-07-10T11:50:21Z</time>
      </trkpt>
      <trkpt lat="44.66207" lon="3.02861">
        <ele>1191.9</ele>
      </trkpt>
      <trkpt lat="44.66193" lon="3.02884">
        <ele>1192.6</ele>
        <time>2025-07-10T11:50:39Z</time>
      </trkpt>
      <trkpt lat="44.6619" lon="3.0291">
        <ele>1192.9</ele>
        <time>2025-07-10T11:50:46Z</time>
      </trkpt>
      <trkpt lat="44.66266" lon="3.02988">
        <ele>1195.5</ele>
      </trkpt>
      <trkpt lat="44.66344" lon="3.03062">
        <ele>1197.3</ele>
        <time>2025-07-10T11:51:59Z</time>
      </trkpt>
      <trkpt lat="44.66446" lon="3.03113">
        <ele>1198.7</ele>
        <time>2025-07-10T11:52:36Z</time>
      </trkpt>
      <trkpt lat="44.66493" lon="3.03141">
        <ele>1198.6</ele>
      </trkpt>
      <trkpt lat="44.66505" lon="3.03153">
        <ele>1199.2</ele>
        <time>2025-07-10T11:52:59Z</time>
      </trkpt>
      <trkpt lat="44.66548" lon="3.03201">
        <ele>1199.6</ele>
        <time>2025-07-10T11:53:17Z</time>
      </trkpt>
      <trkpt lat="44.66562" lon="3.0322">
        <ele>1200.2</ele>
      </trkpt>
      <trkpt lat="44.66565" lon="3.03247">
        <ele>1199.5</ele>
        <time>2025-07-10T11:53:29Z</time>
      </trkpt>
      <trkpt lat="44.6657" lon="3.03284">
        <ele>1199.5</ele>
      </trkpt>
      <trkpt lat="44.66563" lon="3.03313">
        <ele>1198.9</ele>
        <time>2025-07-10T11:53:40Z</time>
      </trkpt>
      <trkpt lat="44.66553" lon="3.03352">
        <ele>1197.7</ele>
      </trkpt>
      <trkpt lat="44.66546" lon="3.03394">
        <ele>1196.6</ele>
      </trkpt>
      <trkpt lat="44.66551" lon="3.03419">
        <ele>1195.4</ele>
      </trkpt>
      <trkpt lat="44.66561" lon="3.03444">
        <ele>1195.6</ele>
        <time>2025-07-10T11:54:15Z</time>
      </trkpt>
      <trkpt lat="44.66581" lon="3.03483">
        <ele>1194</ele>
        <time>2025-07-10T11:59:23Z</time>
      </trkpt>
      <trkpt lat="44.66587" lon="3.03497">
        <ele>1193.6</ele>
      </trkpt>
      <trkpt lat="44.66587" lon="3.03516">
        <ele>1192.9</ele>
        <time>2025-07-10T11:59:32Z</time>
      </trkpt>
      <trkpt lat="44.66563" lon="3.03602">
        <ele>1189.7</ele>
        <time>2025-07-10T12:00:18Z</time>
      </trkpt>
      <trkpt lat="44.66563" lon="3.03614">
        <ele>1189</ele>
        <time>2025-07-10T12:01:32Z</time>
      </trkpt>
      <trkpt lat="44.66563" lon="3.03682">
        <ele>1184.9</ele>
      </trkpt>
      <trkpt lat="44.66565" lon="3.03718">
        <ele>1184.4</ele>
      </trkpt>
      <trkpt lat="44.66574" lon="3.03749">
        <ele>1185.3</ele>
        <time>2025-07-10T12:01:52Z</time>
      </trkpt>
      <trkpt lat="44.66612" lon="3.03803">
        <ele>1184.7</ele>
      </trkpt>
      <trkpt lat="44.66628" lon="3.03827">
        <ele>1184.4</ele>
      </trkpt>
      <trkpt lat="44.66639" lon="3.03852">
        <ele>1184.7</ele>
        <time>2025-07-10T12:02:22Z</time>
      </trkpt>
      <trkpt lat="44.66652" lon="3.0388">
        <ele>1183.1</ele>
      </trkpt>
      <trkpt lat="44.66663" lon="3.03923">
        <ele>1181</ele>
      </trkpt>
      <trkpt lat="44.66668" lon="3.03952">
        <ele>1180</ele>
      </trkpt>
      <trkpt lat="44.66695" lon="3.04042">
        <ele>1181.3</ele>
        <time>2025-07-10T12:05:25Z</time>
      </trkpt>
      <trkpt lat="44.66713" lon="3.0407">
        <ele>1179.9</ele>
      </trkpt>
      <trkpt lat="44.66717" lon="3.04076">
        <ele>1179.9</ele>
      </trkpt>
      <trkpt lat="44.66726" lon="3.04075">
        <ele>1179.7</ele>
      </trkpt>
      <trkpt lat="44.66733" lon="3.04079">
        <ele>1179.8</ele>
      </trkpt>
      <trkpt lat="44.66737" lon="3.04087">
        <ele>1180.1</ele>
      </trkpt>
      <trkpt lat="44.66751" lon="3.04101">
        <ele>1181</ele>
        <time>2025-07-10T12:06:58Z</time>
      </trkpt>
      <trkpt lat="44.66776" lon="3.04138">
        <ele>1182.1</ele>
      </trkpt>
      <trkpt lat="44.66791" lon="3.04164">
        <ele>1184.5</ele>
        <time>2025-07-10T12:07:24Z</time>
      </trkpt>
      <trkpt lat="44.66801" lon="3.0419">
        <ele>1185.3</ele>
      </trkpt>
      <trkpt lat="44.66811" lon="3.04226">
        <ele>1188.2</ele>
      </trkpt>
      <trkpt lat="44.66818" lon="3.04247">
        <ele>1188.4</ele>
      </trkpt>
      <trkpt lat="44.66824" lon="3.04261">
        <ele>1189.1</ele>
        <time>2025-07-10T12:08:06Z</time>
      </trkpt>
      <trkpt lat="44.66824" lon="3.04288">
        <ele>1188</ele>
      </trkpt>
      <trkpt lat="44.6683" lon="3.04323">
        <ele>1188</ele>
        <time>2025-07-10T12:08:21Z</time>
      </trkpt>
      <trkpt lat="44.66825" lon="3.0435">
        <ele>1187.6</ele>
      </trkpt>
      <trkpt lat="44.66822" lon="3.04363">
        <ele>1187.5</ele>
      </trkpt>
      <trkpt lat="44.66826" lon="3.04376">
        <ele>1188.9</ele>
        <time>2025-07-10T12:08:34Z</time>
      </trkpt>
      <trkpt lat="44.66832" lon="3.0439">
        <ele>1188.1</ele>
      </trkpt>
      <trkpt lat="44.66829" lon="3.04406">
        <ele>1188.8</ele>
        <time>2025-07-10T12:08:46Z</time>
      </trkpt>
      <trkpt lat="44.66723" lon="3.04544">
        <ele>1189</ele>
        <time>2025-07-10T12:10:33Z</time>
      </trkpt>
      <trkpt lat="44.66706" lon="3.04564">
        <ele>1188</ele>
      </trkpt>
      <trkpt lat="44.66633" lon="3.04624">
        <ele>1186.4</ele>
        <time>2025-07-10T12:11:17Z</time>
      </trkpt>
      <trkpt lat="44.66437" lon="3.04687">
        <ele>1190.3</ele>
      </trkpt>
      <trkpt lat="44.66351" lon="3.04708">
        <ele>1184.8</ele>
        <time>2025-07-10T12:12:37Z</time>
      </trkpt>
      <trkpt lat="44.66335" lon="3.04715">
        <ele>1183</ele>
      </trkpt>
      <trkpt lat="44.66327" lon="3.04711">
        <ele>1182.6</ele>
      </trkpt>
      <trkpt lat="44.66321" lon="3.04705">
        <ele>1182.4</ele>
        <time>2025-07-10T12:12:49Z</time>
      </trkpt>
      <trkpt lat="44.66307" lon="3.04669">
        <ele>1183</ele>
      </trkpt>
      <trkpt lat="44.66295" lon="3.04631">
        <ele>1183.6</ele>
        <time>2025-07-10T12:13:40Z</time>
      </trkpt>
      <trkpt lat="44.66288" lon="3.04622">
        <ele>1182.9</ele>
      </trkpt>
      <trkpt lat="44.66283" lon="3.04623">
        <ele>1182.2</ele>
      </trkpt>
      <trkpt lat="44.6628" lon="3.04619">
        <ele>1181.9</ele>
      </trkpt>
      <trkpt lat="44.66274" lon="3.04617">
        <ele>1181.5</ele>
      </trkpt>
      <trkpt lat="44.66265" lon="3.04615">
        <ele>1180.9</ele>
        <time>2025-07-10T12:14:23Z</time>
      </trkpt>
      <trkpt lat="44.66261" lon="3.04622">
        <ele>1180.4</ele>
      </trkpt>
      <trkpt lat="44.6626" lon="3.04653">
        <ele>1178.5</ele>
        <time>2025-07-10T12:16:11Z</time>
      </trkpt>
      <trkpt lat="44.66262" lon="3.04667">
        <ele>1177.3</ele>
        <time>2025-07-10T12:26:34Z</time>
      </trkpt>
    </trkseg>
  </trk>
</gpx>